createdAt,value
2017-05-09T00:00:07.731Z,9.88
2017-05-09T00:01:07.266Z,10.01
2017-05-09T00:02:07.842Z,9.75
2017-05-09T00:03:07.404Z,9.70
2017-05-09T00:04:08.196Z,9.71
2017-05-09T00:05:07.664Z,9.80
2017-05-09T00:06:07.280Z,9.84
2017-05-09T00:07:07.864Z,9.84
2017-05-09T00:08:07.414Z,9.87
2017-05-09T00:09:08.268Z,9.87
2017-05-09T00:10:07.798Z,9.88
2017-05-09T00:11:07.305Z,9.91
2017-05-09T00:12:07.945Z,9.93
2017-05-09T00:13:07.470Z,9.66
2017-05-09T00:14:08.451Z,9.66
2017-05-09T00:15:08.210Z,9.84
2017-05-09T00:16:07.796Z,9.79
2017-05-09T00:17:07.492Z,9.84
2017-05-09T00:18:08.118Z,9.70
2017-05-09T00:19:07.651Z,9.55
2017-05-09T00:20:07.085Z,9.57
2017-05-09T00:21:07.631Z,9.65
2017-05-09T00:22:07.134Z,9.51
2017-05-09T00:23:07.643Z,9.61
2017-05-09T00:24:07.236Z,9.73
2017-05-09T00:25:07.746Z,9.60
2017-05-09T00:26:07.307Z,9.69
2017-05-09T00:27:07.917Z,9.79
2017-05-09T00:28:07.374Z,9.86
2017-05-09T00:29:08.019Z,9.94
2017-05-09T00:30:07.643Z,9.90
2017-05-09T00:31:07.811Z,9.82
2017-05-09T00:32:07.411Z,9.76
2017-05-09T00:33:07.924Z,9.86
2017-05-09T00:34:07.606Z,9.77
2017-05-09T00:35:07.051Z,9.85
2017-05-09T00:36:08.504Z,9.95
2017-05-09T00:37:08.094Z,9.89
2017-05-09T00:38:07.703Z,9.87
2017-05-09T00:39:07.281Z,9.91
2017-05-09T00:40:07.839Z,9.98
2017-05-09T00:41:07.406Z,9.99
2017-05-09T00:42:07.945Z,9.91
2017-05-09T00:43:07.445Z,9.81
2017-05-09T00:44:08.025Z,9.90
2017-05-09T00:45:07.514Z,10.06
2017-05-09T00:46:08.053Z,9.96
2017-05-09T00:47:07.160Z,10.03
2017-05-09T00:48:07.615Z,10.04
2017-05-09T00:49:07.245Z,10.11
2017-05-09T00:50:07.847Z,10.02
2017-05-09T00:51:07.436Z,9.98
2017-05-09T00:52:07.985Z,10.00
2017-05-09T00:53:07.444Z,9.96
2017-05-09T00:54:08.012Z,10.07
2017-05-09T00:55:08.542Z,10.04
2017-05-09T00:56:08.113Z,9.85
2017-05-09T00:57:07.715Z,9.71
2017-05-09T00:58:07.180Z,9.74
2017-05-09T00:59:07.725Z,9.82
2017-05-09T01:00:07.182Z,9.79
2017-05-09T01:01:07.762Z,9.85
2017-05-09T01:02:07.375Z,9.74
2017-05-09T01:03:07.998Z,9.86
2017-05-09T01:04:07.574Z,9.88
2017-05-09T01:05:07.175Z,9.70
2017-05-09T01:06:07.767Z,9.77
2017-05-09T01:07:07.295Z,9.65
2017-05-09T01:08:07.904Z,9.54
2017-05-09T01:09:07.566Z,9.49
2017-05-09T01:10:08.179Z,9.47
2017-05-09T01:11:07.644Z,9.67
2017-05-09T01:12:08.084Z,9.73
2017-05-09T01:13:07.692Z,9.66
2017-05-09T01:14:07.386Z,9.60
2017-05-09T01:15:07.940Z,9.66
2017-05-09T01:16:07.455Z,9.53
2017-05-09T01:17:08.088Z,9.65
2017-05-09T01:18:07.867Z,9.73
2017-05-09T01:19:07.369Z,9.80
2017-05-09T01:20:07.875Z,9.86
2017-05-09T01:21:07.414Z,9.85
2017-05-09T01:22:08.013Z,9.87
2017-05-09T01:23:07.792Z,9.87
2017-05-09T01:24:07.260Z,9.64
2017-05-09T01:25:07.786Z,9.73
2017-05-09T01:26:07.283Z,9.76
2017-05-09T01:27:07.821Z,9.64
2017-05-09T01:28:07.510Z,9.70
2017-05-09T01:29:08.165Z,9.73
2017-05-09T01:30:07.737Z,9.63
2017-05-09T01:31:07.206Z,9.62
2017-05-09T01:32:07.772Z,9.39
2017-05-09T01:33:07.352Z,9.48
2017-05-09T01:34:07.875Z,9.45
2017-05-09T01:35:07.399Z,9.37
2017-05-09T01:36:08.004Z,9.32
2017-05-09T01:37:07.897Z,9.17
2017-05-09T01:38:07.401Z,9.27
2017-05-09T01:39:07.951Z,9.27
2017-05-09T01:40:07.223Z,9.45
2017-05-09T01:41:07.727Z,9.43
2017-05-09T01:42:07.237Z,9.64
2017-05-09T01:43:08.149Z,9.54
2017-05-09T01:44:07.743Z,9.25
2017-05-09T01:45:07.381Z,9.39
2017-05-09T01:46:07.985Z,9.43
2017-05-09T01:47:07.538Z,9.48
2017-05-09T01:48:08.125Z,9.55
2017-05-09T01:49:07.692Z,9.48
2017-05-09T01:50:07.177Z,9.36
2017-05-09T01:51:07.747Z,9.52
2017-05-09T01:52:07.263Z,9.45
2017-05-09T01:53:07.845Z,9.40
2017-05-09T01:54:07.425Z,9.51
2017-05-09T01:55:07.943Z,9.30
2017-05-09T01:56:07.706Z,9.43
2017-05-09T01:57:07.183Z,9.50
2017-05-09T01:58:07.659Z,9.53
2017-05-09T01:59:07.473Z,9.58
2017-05-09T02:00:08.062Z,9.57
2017-05-09T02:01:07.742Z,9.61
2017-05-09T02:02:07.354Z,9.39
2017-05-09T02:03:07.910Z,9.53
2017-05-09T02:04:07.564Z,9.51
2017-05-09T02:05:08.148Z,9.53
2017-05-09T02:06:07.704Z,9.48
2017-05-09T02:07:07.274Z,9.57
2017-05-09T02:08:07.765Z,9.57
2017-05-09T02:09:07.289Z,9.55
2017-05-09T02:10:07.924Z,9.65
2017-05-09T02:11:07.671Z,9.69
2017-05-09T02:12:07.291Z,9.51
2017-05-09T02:13:07.872Z,9.34
2017-05-09T02:14:07.473Z,9.25
2017-05-09T02:15:08.085Z,9.15
2017-05-09T02:16:07.684Z,9.09
2017-05-09T02:17:07.319Z,9.16
2017-05-09T02:18:07.922Z,9.32
2017-05-09T02:19:07.473Z,9.43
2017-05-09T02:20:08.052Z,9.53
2017-05-09T02:21:07.838Z,9.41
2017-05-09T02:22:07.388Z,9.57
2017-05-09T02:23:07.925Z,9.53
2017-05-09T02:24:07.469Z,9.61
2017-05-09T02:25:08.101Z,9.51
2017-05-09T02:26:07.532Z,9.64
2017-05-09T02:27:08.030Z,9.65
2017-05-09T02:28:07.516Z,9.59
2017-05-09T02:29:08.132Z,9.52
2017-05-09T02:30:07.646Z,9.47
2017-05-09T02:31:07.347Z,9.53
2017-05-09T02:32:07.904Z,9.62
2017-05-09T02:33:26.019Z,9.35
2017-05-09T02:34:07.607Z,9.07
2017-05-09T02:35:07.123Z,9.17
2017-05-09T02:36:07.601Z,9.29
2017-05-09T02:37:07.792Z,9.19
2017-05-09T02:38:07.415Z,9.25
2017-05-09T02:39:07.991Z,9.09
2017-05-09T02:40:07.635Z,9.13
2017-05-09T02:41:07.166Z,9.33
2017-05-09T02:42:07.685Z,9.35
2017-05-09T02:43:07.233Z,9.17
2017-05-09T02:44:07.728Z,9.31
2017-05-09T02:45:07.305Z,9.30
2017-05-09T02:46:07.873Z,9.30
2017-05-09T02:47:07.453Z,9.13
2017-05-09T02:48:07.938Z,9.07
2017-05-09T02:49:07.432Z,8.93
2017-05-09T02:50:07.988Z,8.88
2017-05-09T02:51:07.425Z,9.02
2017-05-09T02:52:07.952Z,9.12
2017-05-09T02:53:07.443Z,9.22
2017-05-09T02:54:08.049Z,9.15
2017-05-09T02:55:07.546Z,9.24
2017-05-09T02:56:08.008Z,9.23
2017-05-09T02:57:07.832Z,9.05
2017-05-09T02:58:07.331Z,9.26
2017-05-09T02:59:07.940Z,9.27
2017-05-09T03:00:07.441Z,9.35
2017-05-09T03:01:08.062Z,9.26
2017-05-09T03:02:07.591Z,9.32
2017-05-09T03:03:07.052Z,9.36
2017-05-09T03:04:07.570Z,9.30
2017-05-09T03:05:08.114Z,9.18
2017-05-09T03:06:07.635Z,9.02
2017-05-09T03:07:07.211Z,9.05
2017-05-09T03:08:07.877Z,9.20
2017-05-09T03:09:07.989Z,9.07
2017-05-09T03:10:07.477Z,9.08
2017-05-09T03:11:07.983Z,9.24
2017-05-09T03:12:07.436Z,9.37
2017-05-09T03:13:07.989Z,9.29
2017-05-09T03:14:07.540Z,9.22
2017-05-09T03:15:08.157Z,9.33
2017-05-09T03:16:07.761Z,9.31
2017-05-09T03:17:07.745Z,9.34
2017-05-09T03:18:07.242Z,9.26
2017-05-09T03:19:08.033Z,9.35
2017-05-09T03:20:07.549Z,9.38
2017-05-09T03:21:08.149Z,9.33
2017-05-09T03:22:07.680Z,8.89
2017-05-09T03:23:07.209Z,9.07
2017-05-09T03:24:07.733Z,9.34
2017-05-09T03:25:07.254Z,9.23
2017-05-09T03:26:07.822Z,9.18
2017-05-09T03:27:07.393Z,9.18
2017-05-09T03:28:07.912Z,9.24
2017-05-09T03:29:07.500Z,9.40
2017-05-09T03:30:08.012Z,9.25
2017-05-09T03:31:07.678Z,9.10
2017-05-09T03:33:07.187Z,9.23
2017-05-09T03:34:07.408Z,9.36
2017-05-09T03:35:07.946Z,9.39
2017-05-09T03:36:07.612Z,9.32
2017-05-09T03:37:07.254Z,9.21
2017-05-09T03:38:07.762Z,9.23
2017-05-09T03:39:07.546Z,9.18
2017-05-09T03:40:08.167Z,9.12
2017-05-09T03:41:07.656Z,8.97
2017-05-09T03:42:07.272Z,9.05
2017-05-09T03:43:07.863Z,9.16
2017-05-09T03:44:07.411Z,9.31
2017-05-09T03:45:07.994Z,9.38
2017-05-09T03:46:07.468Z,9.34
2017-05-09T03:47:07.985Z,9.25
2017-05-09T03:48:07.442Z,9.41
2017-05-09T03:49:08.021Z,9.08
2017-05-09T03:50:07.523Z,9.21
2017-05-09T03:51:08.064Z,9.34
2017-05-09T03:52:07.640Z,9.19
2017-05-09T03:53:07.143Z,9.22
2017-05-09T03:54:07.627Z,9.26
2017-05-09T03:55:07.109Z,9.37
2017-05-09T03:56:07.822Z,9.39
2017-05-09T03:57:07.711Z,9.28
2017-05-09T03:58:07.284Z,9.32
2017-05-09T03:59:07.765Z,9.38
2017-05-09T04:00:07.263Z,9.31
2017-05-09T04:01:07.700Z,9.48
2017-05-09T04:02:07.179Z,9.50
2017-05-09T04:03:07.789Z,9.55
2017-05-09T04:04:07.292Z,9.56
2017-05-09T04:05:07.809Z,9.57
2017-05-09T04:06:07.519Z,9.56
2017-05-09T04:07:08.035Z,9.56
2017-05-09T04:08:07.658Z,9.53
2017-05-09T04:09:07.139Z,9.39
2017-05-09T04:10:07.605Z,9.20
2017-05-09T04:11:07.076Z,9.20
2017-05-09T04:12:07.599Z,9.34
2017-05-09T04:13:07.102Z,9.41
2017-05-09T04:14:07.577Z,9.21
2017-05-09T04:15:07.197Z,9.01
2017-05-09T04:16:07.809Z,9.06
2017-05-09T04:17:08.051Z,9.18
2017-05-09T04:18:07.641Z,9.25
2017-05-09T04:19:07.106Z,9.32
2017-05-09T04:20:07.595Z,9.13
2017-05-09T04:21:07.699Z,9.21
2017-05-09T04:22:07.220Z,9.33
2017-05-09T04:23:07.282Z,9.35
2017-05-09T04:24:07.838Z,9.39
2017-05-09T04:25:10.126Z,9.28
2017-05-09T04:26:07.089Z,9.22
2017-05-09T04:27:07.538Z,9.28
2017-05-09T04:28:08.169Z,9.31
2017-05-09T04:29:07.711Z,9.43
2017-05-09T04:30:07.503Z,9.47
2017-05-09T04:31:07.980Z,9.50
2017-05-09T04:32:07.595Z,9.46
2017-05-09T04:33:07.193Z,9.26
2017-05-09T04:34:07.763Z,9.07
2017-05-09T04:35:07.322Z,9.08
2017-05-09T04:36:07.961Z,9.16
2017-05-09T04:37:07.843Z,9.23
2017-05-09T04:38:07.350Z,9.33
2017-05-09T04:39:07.944Z,9.25
2017-05-09T04:40:07.442Z,8.94
2017-05-09T04:41:08.017Z,8.95
2017-05-09T04:42:07.644Z,9.09
2017-05-09T04:43:07.227Z,9.27
2017-05-09T04:44:07.757Z,9.29
2017-05-09T04:45:07.298Z,9.26
2017-05-09T04:46:07.924Z,9.22
2017-05-09T04:47:07.545Z,9.23
2017-05-09T04:48:08.118Z,9.37
2017-05-09T04:49:07.665Z,9.45
2017-05-09T04:50:07.159Z,9.44
2017-05-09T04:51:07.725Z,9.46
2017-05-09T04:52:07.230Z,9.49
2017-05-09T04:53:07.717Z,9.50
2017-05-09T04:54:07.455Z,9.57
2017-05-09T04:55:08.191Z,9.37
2017-05-09T04:56:08.121Z,9.36
2017-05-09T04:57:07.676Z,9.36
2017-05-09T04:58:07.213Z,9.37
2017-05-09T04:59:07.793Z,9.40
2017-05-09T05:00:07.316Z,9.37
2017-05-09T05:01:08.180Z,9.37
2017-05-09T05:02:07.724Z,9.33
2017-05-09T05:03:07.350Z,9.35
2017-05-09T05:04:07.929Z,9.40
2017-05-09T05:05:07.481Z,9.50
2017-05-09T05:06:08.231Z,9.54
2017-05-09T05:07:07.864Z,9.64
2017-05-09T05:08:07.510Z,9.55
2017-05-09T05:09:08.097Z,9.46
2017-05-09T05:10:07.952Z,9.52
2017-05-09T05:11:07.440Z,9.57
2017-05-09T05:12:08.009Z,9.62
2017-05-09T05:13:07.568Z,9.56
2017-05-09T05:14:08.113Z,9.58
2017-05-09T05:15:07.721Z,9.49
2017-05-09T05:16:07.472Z,9.51
2017-05-09T05:17:08.193Z,9.55
2017-05-09T05:18:07.817Z,9.56
2017-05-09T05:19:07.814Z,9.49
2017-05-09T05:20:07.352Z,9.56
2017-05-09T05:21:07.823Z,9.43
2017-05-09T05:22:07.332Z,9.27
2017-05-09T05:23:07.951Z,9.31
2017-05-09T05:24:07.441Z,9.42
2017-05-09T05:25:07.966Z,9.21
2017-05-09T05:26:07.467Z,9.21
2017-05-09T05:27:08.102Z,9.19
2017-05-09T05:28:07.747Z,9.29
2017-05-09T05:29:07.209Z,9.42
2017-05-09T05:30:07.313Z,9.37
2017-05-09T05:31:07.843Z,9.53
2017-05-09T05:32:07.432Z,9.39
2017-05-09T05:33:08.270Z,9.32
2017-05-09T05:34:07.855Z,9.43
2017-05-09T05:35:07.319Z,9.49
2017-05-09T05:36:07.935Z,9.48
2017-05-09T05:37:07.424Z,9.55
2017-05-09T05:38:08.014Z,9.51
2017-05-09T05:39:07.609Z,9.60
2017-05-09T05:40:07.167Z,9.63
2017-05-09T05:41:07.757Z,9.63
2017-05-09T05:42:07.355Z,9.65
2017-05-09T05:43:07.849Z,9.59
2017-05-09T05:44:07.598Z,9.51
2017-05-09T05:45:07.043Z,9.64
2017-05-09T05:46:07.629Z,9.64
2017-05-09T05:47:07.120Z,9.61
2017-05-09T05:48:07.668Z,9.53
2017-05-09T05:49:07.262Z,9.54
2017-05-09T05:50:07.810Z,9.48
2017-05-09T05:51:07.498Z,9.55
2017-05-09T05:52:07.973Z,9.58
2017-05-09T05:53:07.539Z,9.62
2017-05-09T05:54:08.134Z,9.56
2017-05-09T05:55:07.724Z,9.57
2017-05-09T05:56:07.414Z,9.57
2017-05-09T05:57:07.894Z,9.49
2017-05-09T05:58:07.508Z,9.40
2017-05-09T05:59:08.081Z,9.52
2017-05-09T06:00:07.620Z,9.62
2017-05-09T06:01:07.102Z,9.72
2017-05-09T06:02:07.645Z,9.55
2017-05-09T06:03:07.218Z,9.51
2017-05-09T06:04:07.747Z,9.53
2017-05-09T06:05:07.230Z,9.75
2017-05-09T06:06:07.806Z,9.57
2017-05-09T06:07:07.255Z,9.73
2017-05-09T06:08:07.755Z,9.62
2017-05-09T06:09:07.397Z,9.60
2017-05-09T06:10:07.862Z,9.72
2017-05-09T06:11:07.386Z,9.77
2017-05-09T06:12:07.943Z,9.86
2017-05-09T06:13:07.512Z,9.90
2017-05-09T06:14:08.058Z,9.89
2017-05-09T06:15:07.661Z,9.92
2017-05-09T06:16:07.191Z,9.89
2017-05-09T06:17:07.850Z,9.86
2017-05-09T06:18:07.513Z,9.86
2017-05-09T06:19:08.037Z,9.81
2017-05-09T06:20:07.529Z,9.81
2017-05-09T06:21:08.961Z,9.77
2017-05-09T06:22:07.488Z,9.75
2017-05-09T06:23:08.083Z,9.78
2017-05-09T06:24:07.573Z,9.82
2017-05-09T06:25:07.212Z,9.81
2017-05-09T06:26:07.749Z,9.87
2017-05-09T06:27:08.200Z,9.64
2017-05-09T06:28:08.113Z,9.54
2017-05-09T06:29:07.715Z,9.65
2017-05-09T06:30:07.216Z,9.72
2017-05-09T06:31:07.850Z,9.69
2017-05-09T06:32:07.355Z,9.75
2017-05-09T06:33:08.046Z,9.81
2017-05-09T06:34:07.715Z,9.74
2017-05-09T06:35:07.570Z,9.74
2017-05-09T06:36:07.242Z,9.80
2017-05-09T06:37:07.733Z,9.78
2017-05-09T06:38:07.246Z,9.79
2017-05-09T06:39:07.773Z,9.93
2017-05-09T06:40:07.418Z,9.94
2017-05-09T06:41:08.021Z,9.85
2017-05-09T06:42:07.540Z,9.67
2017-05-09T06:43:08.168Z,9.62
2017-05-09T06:44:07.738Z,9.76
2017-05-09T06:45:07.223Z,9.68
2017-05-09T06:46:07.772Z,9.74
2017-05-09T06:47:07.343Z,9.79
2017-05-09T06:48:07.926Z,9.73
2017-05-09T06:49:07.468Z,9.86
2017-05-09T06:50:08.028Z,9.67
2017-05-09T06:51:07.596Z,9.85
2017-05-09T06:52:07.131Z,9.74
2017-05-09T06:53:08.564Z,9.60
2017-05-09T06:54:08.144Z,9.53
2017-05-09T06:55:07.579Z,9.47
2017-05-09T06:56:08.170Z,9.54
2017-05-09T06:57:07.791Z,9.43
2017-05-09T06:58:07.344Z,9.43
2017-05-09T06:59:08.009Z,9.55
2017-05-09T07:00:07.562Z,9.59
2017-05-09T07:01:08.221Z,9.62
2017-05-09T07:02:08.805Z,9.58
2017-05-09T07:03:07.380Z,9.60
2017-05-09T07:04:07.983Z,9.59
2017-05-09T07:05:07.469Z,9.62
2017-05-09T07:06:07.997Z,9.56
2017-05-09T07:07:07.611Z,9.53
2017-05-09T07:08:07.054Z,9.44
2017-05-09T07:09:07.633Z,9.42
2017-05-09T07:10:07.150Z,9.30
2017-05-09T07:11:07.635Z,9.24
2017-05-09T07:12:07.233Z,9.41
2017-05-09T07:13:07.744Z,9.44
2017-05-09T07:14:07.382Z,9.38
2017-05-09T07:15:07.938Z,9.29
2017-05-09T07:16:07.445Z,9.37
2017-05-09T07:17:08.144Z,9.40
2017-05-09T07:18:07.788Z,9.49
2017-05-09T07:19:07.410Z,9.52
2017-05-09T07:20:08.043Z,9.34
2017-05-09T07:21:07.639Z,9.32
2017-05-09T07:22:07.228Z,9.33
2017-05-09T07:23:07.792Z,9.35
2017-05-09T07:24:07.435Z,9.26
2017-05-09T07:25:08.027Z,9.33
2017-05-09T07:26:07.665Z,9.46
2017-05-09T07:27:07.107Z,9.47
2017-05-09T07:28:07.409Z,9.42
2017-05-09T07:29:07.955Z,9.51
2017-05-09T07:30:07.622Z,9.45
2017-05-09T07:31:07.163Z,9.51
2017-05-09T07:32:07.724Z,9.41
2017-05-09T07:33:07.207Z,9.38
2017-05-09T07:34:07.887Z,9.30
2017-05-09T07:35:07.499Z,9.36
2017-05-09T07:36:08.032Z,9.42
2017-05-09T07:37:07.592Z,9.46
2017-05-09T07:38:07.236Z,9.45
2017-05-09T07:39:07.736Z,9.41
2017-05-09T07:40:07.371Z,9.28
2017-05-09T07:43:07.454Z,9.33
2017-05-09T07:43:11.190Z,9.31
2017-05-09T07:44:07.808Z,9.34
2017-05-09T07:45:07.403Z,9.54
2017-05-09T07:46:07.988Z,9.61
2017-05-09T07:47:07.541Z,9.61
2017-05-09T07:48:08.118Z,9.62
2017-05-09T07:49:07.770Z,9.58
2017-05-09T07:50:07.375Z,9.52
2017-05-09T07:51:07.958Z,9.58
2017-05-09T07:52:07.495Z,9.57
2017-05-09T07:53:08.293Z,9.62
2017-05-09T07:54:07.849Z,9.63
2017-05-09T07:55:07.552Z,9.69
2017-05-09T07:56:08.165Z,9.69
2017-05-09T07:57:07.727Z,9.71
2017-05-09T07:58:07.202Z,9.69
2017-05-09T07:59:07.768Z,9.69
2017-05-09T08:00:07.335Z,9.72
2017-05-09T08:01:07.892Z,9.85
2017-05-09T08:02:07.435Z,9.87
2017-05-09T08:03:07.964Z,9.84
2017-05-09T08:04:07.685Z,9.81
2017-05-09T08:05:07.265Z,9.80
2017-05-09T08:06:07.830Z,9.82
2017-05-09T08:07:07.388Z,9.93
2017-05-09T08:08:07.966Z,9.89
2017-05-09T08:09:07.578Z,9.91
2017-05-09T08:10:07.135Z,9.98
2017-05-09T08:11:07.711Z,10.14
2017-05-09T08:12:07.228Z,10.13
2017-05-09T08:13:07.837Z,10.11
2017-05-09T08:14:07.305Z,10.03
2017-05-09T08:15:07.840Z,10.01
2017-05-09T08:16:07.354Z,9.98
2017-05-09T08:17:08.271Z,9.91
2017-05-09T08:18:07.854Z,9.94
2017-05-09T08:19:07.465Z,9.88
2017-05-09T08:20:08.161Z,9.85
2017-05-09T08:21:07.799Z,9.90
2017-05-09T08:22:07.311Z,9.85
2017-05-09T08:23:07.773Z,9.91
2017-05-09T08:24:08.453Z,9.96
2017-05-09T08:25:08.092Z,9.90
2017-05-09T08:26:07.549Z,9.94
2017-05-09T08:27:07.846Z,10.04
2017-05-09T08:28:07.845Z,10.02
2017-05-09T08:29:07.418Z,10.15
2017-05-09T08:30:07.860Z,10.10
2017-05-09T08:31:07.397Z,10.09
2017-05-09T08:32:08.007Z,9.92
2017-05-09T08:33:07.450Z,10.05
2017-05-09T08:34:08.119Z,10.18
2017-05-09T08:35:07.811Z,10.08
2017-05-09T08:36:07.346Z,9.94
2017-05-09T08:37:07.885Z,9.89
2017-05-09T08:38:07.350Z,9.92
2017-05-09T08:39:07.901Z,9.96
2017-05-09T08:40:07.510Z,10.06
2017-05-09T08:41:08.012Z,10.11
2017-05-09T08:42:07.466Z,10.15
2017-05-09T08:43:08.022Z,10.12
2017-05-09T08:44:07.515Z,10.08
2017-05-09T08:45:08.178Z,10.09
2017-05-09T08:46:07.701Z,10.13
2017-05-09T08:47:07.553Z,10.06
2017-05-09T08:48:08.139Z,10.09
2017-05-09T08:49:07.713Z,10.09
2017-05-09T08:50:07.668Z,10.04
2017-05-09T08:51:07.288Z,10.03
2017-05-09T08:52:08.352Z,9.93
2017-05-09T08:53:07.805Z,10.04
2017-05-09T08:54:07.313Z,10.07
2017-05-09T08:55:07.839Z,10.03
2017-05-09T08:56:07.355Z,9.90
2017-05-09T08:57:07.864Z,10.04
2017-05-09T08:58:07.345Z,10.01
2017-05-09T08:59:07.843Z,10.12
2017-05-09T09:00:07.322Z,10.20
2017-05-09T09:01:07.983Z,10.20
2017-05-09T09:02:07.501Z,10.15
2017-05-09T09:03:08.053Z,10.05
2017-05-09T09:04:07.710Z,10.16
2017-05-09T09:05:07.251Z,10.07
2017-05-09T09:06:07.863Z,10.16
2017-05-09T09:07:07.463Z,10.21
2017-05-09T09:08:08.179Z,10.29
2017-05-09T09:09:07.745Z,10.32
2017-05-09T09:10:07.286Z,10.41
2017-05-09T09:11:07.896Z,10.45
2017-05-09T09:12:08.136Z,10.21
2017-05-09T09:13:07.626Z,9.98
2017-05-09T09:14:07.100Z,10.00
2017-05-09T09:15:07.683Z,9.85
2017-05-09T09:16:07.179Z,9.82
2017-05-09T09:17:07.867Z,10.05
2017-05-09T09:18:07.329Z,10.18
2017-05-09T09:19:07.926Z,10.15
2017-05-09T09:20:07.401Z,9.87
2017-05-09T09:21:08.059Z,10.07
2017-05-09T09:22:07.525Z,9.84
2017-05-09T09:23:08.109Z,9.61
2017-05-09T09:24:07.713Z,9.46
2017-05-09T09:25:07.140Z,9.42
2017-05-09T09:26:07.866Z,9.58
2017-05-09T09:27:07.402Z,9.82
2017-05-09T09:28:07.920Z,10.11
2017-05-09T09:29:07.385Z,9.80
2017-05-09T09:30:07.942Z,9.80
2017-05-09T09:31:07.535Z,9.91
2017-05-09T09:32:08.118Z,9.87
2017-05-09T09:33:07.607Z,10.04
2017-05-09T09:34:07.372Z,9.86
2017-05-09T09:35:08.016Z,9.81
2017-05-09T09:36:07.521Z,10.18
2017-05-09T09:37:08.058Z,10.31
2017-05-09T09:38:07.616Z,10.45
2017-05-09T09:39:07.095Z,10.60
2017-05-09T09:40:07.580Z,10.70
2017-05-09T09:41:07.277Z,10.74
2017-05-09T09:42:07.876Z,10.82
2017-05-09T09:43:07.378Z,10.88
2017-05-09T09:44:07.884Z,10.92
2017-05-09T09:45:07.525Z,11.00
2017-05-09T09:46:08.136Z,10.97
2017-05-09T09:47:07.749Z,10.99
2017-05-09T09:48:07.279Z,10.87
2017-05-09T09:49:07.897Z,10.78
2017-05-09T09:50:07.393Z,10.78
2017-05-09T09:51:07.989Z,10.75
2017-05-09T09:52:07.614Z,10.69
2017-05-09T09:53:07.297Z,10.65
2017-05-09T09:54:07.872Z,10.48
2017-05-09T09:55:07.449Z,10.57
2017-05-09T09:56:08.025Z,10.58
2017-05-09T09:57:07.637Z,10.51
2017-05-09T09:58:07.098Z,10.56
2017-05-09T09:59:07.683Z,10.53
2017-05-09T10:00:07.167Z,10.53
2017-05-09T10:01:07.671Z,10.65
2017-05-09T10:02:07.264Z,10.69
2017-05-09T10:03:07.817Z,10.65
2017-05-09T10:04:07.539Z,10.61
2017-05-09T10:05:08.138Z,10.71
2017-05-09T10:06:07.716Z,10.74
2017-05-09T10:07:07.264Z,10.89
2017-05-09T10:08:07.849Z,10.75
2017-05-09T10:09:07.559Z,10.77
2017-05-09T10:10:08.110Z,10.91
2017-05-09T10:11:07.615Z,10.97
2017-05-09T10:12:07.138Z,11.00
2017-05-09T10:13:07.722Z,10.96
2017-05-09T10:14:07.221Z,10.82
2017-05-09T10:15:07.834Z,10.90
2017-05-09T10:16:07.364Z,10.91
2017-05-09T10:17:08.072Z,10.97
2017-05-09T10:18:07.666Z,11.08
2017-05-09T10:19:07.216Z,11.15
2017-05-09T10:20:07.834Z,11.16
2017-05-09T10:21:07.565Z,11.23
2017-05-09T10:22:08.251Z,11.18
2017-05-09T10:23:07.699Z,10.99
2017-05-09T10:24:07.205Z,11.12
2017-05-09T10:25:07.844Z,11.20
2017-05-09T10:26:07.386Z,11.21
2017-05-09T10:27:08.008Z,11.20
2017-05-09T10:28:07.560Z,11.15
2017-05-09T10:29:07.169Z,11.17
2017-05-09T10:30:07.742Z,11.14
2017-05-09T10:31:07.284Z,11.17
2017-05-09T10:32:08.079Z,11.18
2017-05-09T10:33:07.664Z,11.23
2017-05-09T10:34:07.380Z,11.21
2017-05-09T10:35:07.867Z,11.26
2017-05-09T10:36:07.402Z,11.24
2017-05-09T10:37:07.948Z,11.23
2017-05-09T10:38:07.489Z,11.18
2017-05-09T10:39:07.933Z,11.20
2017-05-09T10:40:07.529Z,11.08
2017-05-09T10:41:08.169Z,11.21
2017-05-09T10:42:07.724Z,11.21
2017-05-09T10:43:07.351Z,11.17
2017-05-09T10:44:07.950Z,11.16
2017-05-09T10:45:07.648Z,11.15
2017-05-09T10:46:07.234Z,11.16
2017-05-09T10:47:07.800Z,11.17
2017-05-09T10:48:07.368Z,11.15
2017-05-09T10:49:07.948Z,11.30
2017-05-09T10:50:07.519Z,11.26
2017-05-09T10:51:08.104Z,11.35
2017-05-09T10:52:07.576Z,11.37
2017-05-09T10:53:07.166Z,11.51
2017-05-09T10:54:07.767Z,11.50
2017-05-09T10:55:07.450Z,11.43
2017-05-09T10:56:08.006Z,11.49
2017-05-09T10:57:07.912Z,11.52
2017-05-09T10:58:07.473Z,11.55
2017-05-09T10:59:08.011Z,11.32
2017-05-09T11:00:07.615Z,11.41
2017-05-09T11:01:07.227Z,11.47
2017-05-09T11:02:07.682Z,11.50
2017-05-09T11:03:07.262Z,11.31
2017-05-09T11:04:08.019Z,11.42
2017-05-09T11:05:07.066Z,11.49
2017-05-09T11:06:07.620Z,11.61
2017-05-09T11:07:07.085Z,11.69
2017-05-09T11:08:07.722Z,11.70
2017-05-09T11:09:07.382Z,11.55
2017-05-09T11:10:08.184Z,11.41
2017-05-09T11:11:07.816Z,11.24
2017-05-09T11:12:07.373Z,11.37
2017-05-09T11:13:07.934Z,11.51
2017-05-09T11:14:07.462Z,11.66
2017-05-09T11:15:08.016Z,11.63
2017-05-09T11:16:07.610Z,11.89
2017-05-09T11:17:07.342Z,11.97
2017-05-09T11:18:07.986Z,11.95
2017-05-09T11:19:07.605Z,11.90
2017-05-09T11:20:08.041Z,11.91
2017-05-09T11:21:08.339Z,11.87
2017-05-09T11:22:07.844Z,11.93
2017-05-09T11:23:07.376Z,11.91
2017-05-09T11:24:07.964Z,11.98
2017-05-09T11:25:07.470Z,12.07
2017-05-09T11:26:07.985Z,11.95
2017-05-09T11:27:07.438Z,11.90
2017-05-09T11:28:08.128Z,11.94
2017-05-09T11:29:26.267Z,11.95
2017-05-09T11:30:07.912Z,12.05
2017-05-09T11:31:07.408Z,12.17
2017-05-09T11:32:07.973Z,12.19
2017-05-09T11:33:07.495Z,12.21
2017-05-09T11:34:08.154Z,12.00
2017-05-09T11:35:07.684Z,11.99
2017-05-09T11:36:07.170Z,12.08
2017-05-09T11:37:07.697Z,11.79
2017-05-09T11:38:07.235Z,11.95
2017-05-09T11:39:07.747Z,12.08
2017-05-09T11:40:07.273Z,12.15
2017-05-09T11:41:07.873Z,12.07
2017-05-09T11:42:07.473Z,12.06
2017-05-09T11:43:08.102Z,12.20
2017-05-09T11:44:07.721Z,12.19
2017-05-09T11:45:07.274Z,12.27
2017-05-09T11:46:07.789Z,12.19
2017-05-09T11:47:07.386Z,12.25
2017-05-09T11:48:07.976Z,12.15
2017-05-09T11:49:07.494Z,12.18
2017-05-09T11:50:07.979Z,12.01
2017-05-09T11:51:07.479Z,11.96
2017-05-09T11:52:07.971Z,11.92
2017-05-09T11:53:07.404Z,11.87
2017-05-09T11:54:07.949Z,11.81
2017-05-09T11:55:07.574Z,11.73
2017-05-09T11:56:08.161Z,11.74
2017-05-09T11:57:07.774Z,11.75
2017-05-09T11:58:07.393Z,11.70
2017-05-09T11:59:07.990Z,11.61
2017-05-09T12:00:07.518Z,11.53
2017-05-09T12:01:08.023Z,11.48
2017-05-09T12:02:07.661Z,11.36
2017-05-09T12:03:07.340Z,11.41
2017-05-09T12:04:07.999Z,11.41
2017-05-09T12:05:07.612Z,11.38
2017-05-09T12:06:07.304Z,11.40
2017-05-09T12:07:07.891Z,11.45
2017-05-09T12:08:07.493Z,11.48
2017-05-09T12:09:08.008Z,11.56
2017-05-09T12:10:07.681Z,11.49
2017-05-09T12:11:07.200Z,11.47
2017-05-09T12:12:07.805Z,11.46
2017-05-09T12:13:07.266Z,11.47
2017-05-09T12:14:07.923Z,11.50
2017-05-09T12:15:07.627Z,11.44
2017-05-09T12:16:07.336Z,11.41
2017-05-09T12:17:07.979Z,11.36
2017-05-09T12:18:07.573Z,11.38
2017-05-09T12:19:08.204Z,11.45
2017-05-09T12:20:07.915Z,11.41
2017-05-09T12:21:07.461Z,11.54
2017-05-09T12:22:07.883Z,11.58
2017-05-09T12:23:07.994Z,11.75
2017-05-09T12:24:07.456Z,11.76
2017-05-09T12:25:07.978Z,11.75
2017-05-09T12:26:07.549Z,11.76
2017-05-09T12:27:08.232Z,11.87
2017-05-09T12:28:07.759Z,11.79
2017-05-09T12:29:07.334Z,11.82
2017-05-09T12:30:08.013Z,11.83
2017-05-09T12:31:07.546Z,11.83
2017-05-09T12:32:08.100Z,11.78
2017-05-09T12:33:07.655Z,11.75
2017-05-09T12:34:07.282Z,11.79
2017-05-09T12:35:07.917Z,11.91
2017-05-09T12:36:07.514Z,11.98
2017-05-09T12:37:08.050Z,12.06
2017-05-09T12:38:07.748Z,12.13
2017-05-09T12:39:07.430Z,12.16
2017-05-09T12:40:07.998Z,12.27
2017-05-09T12:41:07.444Z,12.22
2017-05-09T12:42:07.948Z,12.21
2017-05-09T12:43:07.436Z,12.25
2017-05-09T12:44:07.954Z,12.30
2017-05-09T12:45:21.691Z,12.28
2017-05-09T12:46:07.340Z,12.28
2017-05-09T12:47:07.863Z,12.39
2017-05-09T12:48:07.374Z,12.40
2017-05-09T12:49:07.861Z,12.44
2017-05-09T12:50:07.435Z,12.46
2017-05-09T12:51:08.065Z,12.44
2017-05-09T12:52:07.514Z,12.47
2017-05-09T12:53:08.067Z,12.45
2017-05-09T12:54:07.823Z,12.51
2017-05-09T12:55:07.336Z,12.30
2017-05-09T12:56:07.900Z,12.35
2017-05-09T12:57:07.553Z,12.21
2017-05-09T12:58:08.118Z,12.20
2017-05-09T12:59:07.693Z,12.22
2017-05-09T13:00:07.358Z,12.32
2017-05-09T13:01:08.073Z,12.19
2017-05-09T13:02:07.643Z,12.03
2017-05-09T13:03:07.294Z,12.02
2017-05-09T13:04:07.958Z,11.90
2017-05-09T13:05:07.441Z,11.98
2017-05-09T13:06:08.006Z,11.99
2017-05-09T13:07:07.594Z,12.09
2017-05-09T13:08:07.197Z,12.14
2017-05-09T13:09:07.714Z,12.06
2017-05-09T13:10:07.208Z,12.08
2017-05-09T13:11:07.833Z,12.12